Time;durP1;ratioP1;P1;durP2;ratioP2;P2;SDS_P1;SDS_P2;PMS_P1;PMS_P2;Temp;Humidity;BMP_temperature;BMP_pressure;BME280_temperature;BME280_humidity;BME280_pressure;Samples;Min_cycle;Max_cycle;Signal;HPM_P1;HPM_P2
2022/01/03 15:08:33;;;;;;;6.55;1.75;;;;;;;8.65;75.60;97820.50;5442224;23;20078;-52
2022/01/03 15:10:59;;;;;;;8.05;1.60;;;;;;;8.60;76.04;97818.16;4922504;29;20138;-48
2022/01/03 15:13:25;;;;;;;9.70;2.38;;;;;;;8.52;76.61;97815.25;4934958;29;20035;-49
2022/01/03 15:15:50;;;;;;;8.48;2.17;;;;;;;8.50;76.22;97814.53;4935743;29;20039;-52
2022/01/03 15:18:15;;;;;;;7.28;1.80;;;;;;;8.52;75.78;97815.25;4927840;29;20028;-53
2022/01/03 15:20:41;;;;;;;10.18;2.22;;;;;;;8.47;76.13;97806.88;4918120;29;20107;-51
2022/01/03 15:23:06;;;;;;;10.93;2.17;;;;;;;8.49;77.09;97812.81;4933131;29;20031;-49
2022/01/03 15:25:31;;;;;;;7.50;2.10;;;;;;;8.40;76.76;97813.44;4934266;29;20483;-51
2022/01/03 15:27:58;;;;;;;8.27;2.17;;;;;;;8.28;77.45;97808.03;4934696;29;20036;-52
2022/01/03 15:30:27;;;;;;;12.07;2.67;;;;;;;8.29;77.92;97803.66;4934596;29;20403;-50
2022/01/03 15:32:53;;;;;;;8.65;1.75;;;;;;;8.16;78.33;97793.19;4934234;29;20097;-54
2022/01/03 15:35:18;;;;;;;8.98;2.30;;;;;;;8.25;78.35;97795.16;4935055;29;20392;-53
2022/01/03 15:37:44;;;;;;;9.35;2.15;;;;;;;8.32;78.04;97793.81;4934144;29;20028;-52
2022/01/03 15:40:10;;;;;;;8.20;1.80;;;;;;;8.32;78.64;97793.00;4934036;29;20027;-54
2022/01/03 15:42:35;;;;;;;8.23;1.88;;;;;;;8.30;78.84;97787.88;4916637;29;20129;-53
2022/01/03 15:45:00;;;;;;;8.70;2.10;;;;;;;8.11;79.53;97784.78;4934202;29;20028;-52
2022/01/03 15:47:26;;;;;;;8.25;2.20;;;;;;;8.23;79.41;97788.41;4934395;29;20476;-52
2022/01/03 15:49:51;;;;;;;8.88;2.42;;;;;;;8.16;79.60;97776.69;4934152;29;20034;-53
2022/01/03 15:52:16;;;;;;;7.43;2.10;;;;;;;8.10;79.37;97780.50;4934407;29;20444;-51
2022/01/03 15:54:42;;;;;;;11.55;2.00;;;;;;;8.25;78.41;97782.09;4916899;29;20046;-54
2022/01/03 15:57:07;;;;;;;8.63;2.13;;;;;;;8.19;79.21;97779.94;4934084;29;20028;-54
2022/01/03 15:59:33;;;;;;;7.38;2.10;;;;;;;8.03;79.82;97771.41;4934163;29;20028;-54
2022/01/03 16:01:58;;;;;;;11.95;2.08;;;;;;;7.93;80.12;97755.50;4934416;29;20036;-51
2022/01/03 16:04:23;;;;;;;10.95;2.15;;;;;;;8.07;79.90;97765.03;4934182;29;20402;-51
2022/01/03 16:06:50;;;;;;;11.00;2.10;;;;;;;8.15;80.16;97770.59;4883172;29;20032;-52
2022/01/03 16:09:19;;;;;;;8.80;2.28;;;;;;;8.19;79.33;97756.41;4915339;29;20431;-53
2022/01/03 16:11:45;;;;;;;9.15;2.33;;;;;;;8.19;78.74;97756.41;4898769;29;20028;-48
2022/01/03 16:14:10;;;;;;;9.57;2.22;;;;;;;8.27;78.23;97754.13;4915282;29;20080;-48
2022/01/03 16:16:36;;;;;;;6.75;1.90;;;;;;;8.22;78.90;97748.34;4910962;29;20050;-55
2022/01/03 16:19:01;;;;;;;7.60;2.00;;;;;;;8.25;78.55;97750.75;4933963;29;20530;-51
2022/01/03 16:21:26;;;;;;;6.97;2.30;;;;;;;8.27;78.00;97741.06;4934052;29;20476;-49
2022/01/03 16:23:52;;;;;;;9.63;2.40;;;;;;;8.12;78.46;97731.63;4933391;29;20039;-52
2022/01/03 16:26:17;;;;;;;8.98;2.60;;;;;;;8.13;78.33;97729.84;4916491;29;20488;-47
2022/01/03 16:28:43;;;;;;;9.02;3.42;;;;;;;8.20;77.85;97720.66;4933969;29;20042;-48
2022/01/03 16:31:08;;;;;;;16.52;5.85;;;;;;;8.08;77.65;97727.53;4916897;29;20024;-47
2022/01/03 16:33:34;;;;;;;9.57;3.10;;;;;;;8.11;78.09;97726.50;4933970;29;20038;-49
2022/01/03 16:35:59;;;;;;;12.38;4.15;;;;;;;8.16;77.24;97724.44;4933364;29;20039;-51
2022/01/03 16:38:26;;;;;;;16.98;8.75;;;;;;;7.96;77.48;97723.97;4933733;29;20103;-46
2022/01/03 16:40:52;;;;;;;18.65;7.88;;;;;;;7.97;76.97;97714.34;4933486;29;20392;-48
2022/01/03 16:43:18;;;;;;;15.20;7.35;;;;;;;7.97;76.54;97714.34;4933590;29;20040;-51
2022/01/03 16:45:43;;;;;;;10.32;3.80;;;;;;;7.96;76.54;97720.50;4933628;29;20252;-48
2022/01/03 16:48:09;;;;;;;15.68;8.43;;;;;;;7.98;77.99;97727.31;4933906;29;20027;-47
2022/01/03 16:50:37;;;;;;;14.23;5.68;;;;;;;8.06;77.72;97725.03;4916891;29;20020;-47
2022/01/03 16:53:03;;;;;;;10.35;3.63;;;;;;;8.10;76.68;97728.28;4935444;29;20078;-48
2022/01/03 16:55:30;;;;;;;11.70;4.22;;;;;;;8.04;76.96;97713.00;4937154;29;20038;-51
2022/01/03 16:57:56;;;;;;;10.23;3.78;;;;;;;8.09;76.56;97710.94;4904573;29;20068;-47
2022/01/03 17:00:22;;;;;;;12.57;4.43;;;;;;;8.05;76.79;97704.22;4920680;29;20107;-49
2022/01/03 17:02:48;;;;;;;13.50;5.68;;;;;;;8.08;76.21;97702.22;4920311;29;20039;-49
2022/01/03 17:05:14;;;;;;;12.05;5.40;;;;;;;8.09;76.24;97700.50;4937452;29;20107;-50
2022/01/03 17:07:39;;;;;;;5.93;2.40;;;;;;;8.22;75.55;97701.31;4937118;29;20028;-49
2022/01/03 17:10:05;;;;;;;9.82;4.38;;;;;;;8.19;75.37;97698.94;4937250;29;20028;-48
2022/01/03 17:12:30;;;;;;;9.60;3.47;;;;;;;8.09;75.73;97687.44;4937081;29;20067;-47
2022/01/03 17:14:56;;;;;;;6.50;2.35;;;;;;;8.06;76.10;97687.63;4937193;29;20034;-47
2022/01/03 17:17:21;;;;;;;11.40;2.83;;;;;;;8.14;75.12;97684.50;4936872;29;20104;-52
2022/01/03 17:19:47;;;;;;;9.48;1.95;;;;;;;8.03;75.65;97667.78;4919867;29;20043;-51
2022/01/03 17:22:12;;;;;;;6.88;2.10;;;;;;;8.02;75.87;97670.50;4936627;29;20032;-47
2022/01/03 17:24:38;;;;;;;14.52;2.60;;;;;;;8.08;75.45;97667.44;4936785;29;20431;-49
2022/01/03 17:27:04;;;;;;;6.47;2.03;;;;;;;7.97;74.68;97646.44;4937099;29;20028;-48
2022/01/03 17:29:29;;;;;;;7.85;2.20;;;;;;;8.08;75.05;97654.38;4936544;29;20082;-50
2022/01/03 17:31:55;;;;;;;9.75;2.42;;;;;;;8.03;75.59;97646.88;4919763;29;20027;-50
2022/01/03 17:34:20;;;;;;;8.35;2.42;;;;;;;8.06;75.20;97645.84;4936480;29;20028;-51
2022/01/03 17:36:45;;;;;;;9.18;2.60;;;;;;;8.07;75.05;97643.13;4936608;29;20038;-49
2022/01/03 17:39:11;;;;;;;8.73;2.25;;;;;;;8.09;74.33;97641.25;4936285;29;20024;-51
2022/01/03 17:41:36;;;;;;;9.65;2.42;;;;;;;8.20;73.77;97635.28;4936655;29;20376;-50
2022/01/03 17:44:02;;;;;;;8.27;2.28;;;;;;;8.17;73.78;97632.88;4936362;29;20490;-48
2022/01/03 17:46:27;;;;;;;8.88;2.10;;;;;;;8.07;74.45;97626.59;4936668;29;20024;-48
2022/01/03 17:48:53;;;;;;;4.50;1.80;;;;;;;8.04;74.34;97642.47;4936011;29;20106;-48
2022/01/03 17:51:18;;;;;;;5.88;1.80;;;;;;;8.01;74.00;97627.84;4936474;29;20035;-51
2022/01/03 17:53:44;;;;;;;8.95;2.20;;;;;;;8.12;73.45;97639.34;4936072;29;20380;-49
2022/01/03 17:56:11;;;;;;;9.07;2.08;;;;;;;8.12;74.02;97641.97;4936501;29;20031;-48
2022/01/03 17:58:40;;;;;;;6.50;2.00;;;;;;;8.15;73.11;97636.53;4936246;29;20028;-48
2022/01/03 18:01:05;;;;;;;7.90;2.50;;;;;;;8.18;72.83;97629.31;4935756;29;20473;-50
2022/01/03 18:03:31;;;;;;;8.00;2.30;;;;;;;8.17;73.47;97625.03;4935836;29;20396;-52
2022/01/03 18:05:56;;;;;;;9.00;2.67;;;;;;;8.19;73.45;97638.00;4935526;29;20023;-50
2022/01/03 18:08:22;;;;;;;8.88;2.67;;;;;;;8.19;73.53;97631.00;4918839;29;20027;-51
2022/01/03 18:10:47;;;;;;;6.25;2.30;;;;;;;8.26;73.13;97637.50;4935838;29;20023;-50
2022/01/03 18:13:13;;;;;;;10.68;2.50;;;;;;;8.15;73.64;97632.13;4935748;29;20027;-49
2022/01/03 18:15:39;;;;;;;6.75;2.00;;;;;;;8.19;73.12;97622.31;4935961;29;20051;-52
2022/01/03 18:18:05;;;;;;;9.80;2.80;;;;;;;8.23;73.11;97611.56;4935710;29;20027;-52
2022/01/03 18:20:31;;;;;;;17.58;5.35;;;;;;;8.06;73.76;97594.44;4935826;29;20114;-53
2022/01/03 18:22:56;;;;;;;14.13;4.70;;;;;;;8.13;73.15;97599.25;4935764;29;20111;-49
2022/01/03 18:25:23;;;;;;;55.15;18.63;;;;;;;8.11;73.51;97593.28;4935712;29;20049;-49
2022/01/03 18:27:48;;;;;;;19.40;6.57;;;;;;;8.18;73.41;97587.53;4935601;29;20462;-48
2022/01/03 18:30:14;;;;;;;15.93;5.80;;;;;;;8.08;73.88;97592.53;4935609;29;20059;-49
2022/01/03 18:32:39;;;;;;;28.55;9.98;;;;;;;8.07;74.81;97592.66;4935262;29;20031;-50
2022/01/03 18:35:05;;;;;;;24.17;8.35;;;;;;;7.94;74.94;97589.19;4935374;29;20519;-48
2022/01/03 18:37:31;;;;;;;29.10;11.70;;;;;;;7.99;75.27;97602.78;4935269;29;20031;-49
2022/01/03 18:39:56;;;;;;;21.02;7.65;;;;;;;8.02;74.32;97598.19;4935204;29;20046;-51
2022/01/03 18:42:22;;;;;;;20.38;7.90;;;;;;;8.00;75.17;97586.19;4935572;29;20101;-49
2022/01/03 18:44:47;;;;;;;29.52;9.77;;;;;;;8.03;74.87;97583.38;4935229;29;20111;-51
2022/01/03 18:47:12;;;;;;;22.08;7.65;;;;;;;7.97;74.23;97579.38;4935233;29;20452;-49
2022/01/03 18:49:38;;;;;;;16.35;5.47;;;;;;;8.03;74.13;97578.13;4935322;29;20031;-48
2022/01/03 18:52:03;;;;;;;17.48;6.75;;;;;;;7.93;73.52;97571.88;4934896;29;20054;-50
2022/01/03 18:54:29;;;;;;;24.90;8.32;;;;;;;8.08;72.91;97581.25;4934921;29;20103;-52
2022/01/03 18:56:55;;;;;;;32.47;11.48;;;;;;;8.04;72.97;97574.56;4918195;29;20055;-52
2022/01/03 18:59:22;;;;;;;35.83;12.18;;;;;;;8.04;73.16;97569.34;4935200;29;20098;-48
2022/01/03 19:01:48;;;;;;;19.20;7.50;;;;;;;8.13;72.76;97568.72;4934844;29;20031;-48
2022/01/03 19:04:14;;;;;;;43.05;14.93;;;;;;;8.11;72.73;97564.53;4934856;29;20028;-52
2022/01/03 19:06:40;;;;;;;15.27;4.97;;;;;;;8.20;72.31;97567.38;4919425;29;20492;-52
2022/01/03 19:09:05;;;;;;;21.50;7.07;;;;;;;8.20;72.23;97561.31;4915919;29;20079;-50
2022/01/03 19:11:31;;;;;;;14.68;4.00;;;;;;;8.24;71.94;97557.53;4916866;29;20484;-48
2022/01/03 19:13:56;;;;;;;19.27;6.30;;;;;;;8.24;72.24;97549.69;4934421;29;20028;-48
2022/01/03 19:16:22;;;;;;;19.65;5.80;;;;;;;8.20;71.97;97537.81;4917788;29;20046;-51
2022/01/03 19:18:48;;;;;;;16.27;4.72;;;;;;;8.26;71.38;97540.81;4934777;29;20020;-49
2022/01/03 19:21:13;;;;;;;19.63;6.93;;;;;;;8.25;71.06;97540.91;4917968;29;20046;-48
2022/01/03 19:23:40;;;;;;;25.75;8.05;;;;;;;8.20;71.89;97548.25;4926832;29;20031;-52
2022/01/03 19:26:06;;;;;;;19.73;6.53;;;;;;;8.30;71.05;97539.66;4934918;29;20024;-49
2022/01/03 19:28:33;;;;;;;19.20;5.78;;;;;;;8.22;71.16;97536.72;4934463;29;20082;-48
2022/01/03 19:31:01;;;;;;;15.68;4.55;;;;;;;8.22;70.84;97539.34;4934550;29;20040;-49
2022/01/03 19:38:46;;;;;;;15.25;5.00;;;;;;;8.28;70.85;97535.47;4934569;29;20127;-51
2022/01/03 19:41:13;;;;;;;65.30;24.75;;;;;;;8.17;70.99;97525.78;4934618;29;20075;-48
2022/01/03 19:43:38;;;;;;;49.55;18.65;;;;;;;8.05;71.70;97534.44;4934062;29;20479;-49
2022/01/03 19:46:04;;;;;;;17.60;6.20;;;;;;;8.04;71.98;97532.78;4934358;29;20047;-48
2022/01/03 19:48:29;;;;;;;16.75;7.47;;;;;;;8.04;71.52;97522.34;4925239;29;20028;-51
2022/01/03 19:50:54;;;;;;;15.27;6.75;;;;;;;8.07;71.23;97512.53;4929035;29;20399;-49
2022/01/03 19:53:20;;;;;;;10.13;4.30;;;;;;;8.18;71.54;97518.78;4934294;29;20094;-48
2022/01/03 19:55:45;;;;;;;19.40;6.93;;;;;;;8.14;71.93;97507.72;4934199;29;20476;-53
2022/01/03 19:58:11;;;;;;;15.48;6.55;;;;;;;7.99;71.65;97514.00;4934256;29;20432;-49
2022/01/03 20:00:37;;;;;;;10.05;4.20;;;;;;;7.91;72.17;97509.28;4934262;29;20475;-49
2022/01/03 20:03:03;;;;;;;11.05;3.80;;;;;;;7.89;72.36;97502.53;4924678;29;20104;-48
2022/01/03 20:05:29;;;;;;;8.23;2.95;;;;;;;7.88;72.67;97500.84;4925233;29;20024;-49
2022/01/03 20:07:54;;;;;;;15.20;5.43;;;;;;;7.81;73.10;97496.06;4931830;29;20030;-52
2022/01/03 20:10:20;;;;;;;10.75;4.28;;;;;;;7.75;72.91;97503.47;4930038;29;20067;-47
2022/01/03 20:12:46;;;;;;;8.90;2.97;;;;;;;7.72;72.95;97496.69;4930199;29;20023;-49
2022/01/03 20:15:12;;;;;;;13.13;5.25;;;;;;;7.78;73.33;97495.44;4932404;29;20484;-50
2022/01/03 20:17:37;;;;;;;6.70;2.22;;;;;;;7.77;72.95;97491.13;4933886;29;20027;-50
2022/01/03 20:20:04;;;;;;;7.85;2.50;;;;;;;7.90;72.67;97493.75;4934508;29;20031;-50
